sensor_id;sensor_type;location;lat;lon;timestamp;temperature;humidity
13268;DHT22;6702;47.068;15.458;2023-02-08T00:01:49;-1.50;79.60
13268;DHT22;6702;47.068;15.458;2023-02-08T00:04:54;-1.60;79.60
13268;DHT22;6702;47.068;15.458;2023-02-08T00:07:58;-1.60;79.90
13268;DHT22;6702;47.068;15.458;2023-02-08T00:11:01;-1.60;80.30
13268;DHT22;6702;47.068;15.458;2023-02-08T00:14:04;-1.60;80.90
13268;DHT22;6702;47.068;15.458;2023-02-08T00:17:07;-1.60;81.00
13268;DHT22;6702;47.068;15.458;2023-02-08T00:20:12;-1.60;81.10
13268;DHT22;6702;47.068;15.458;2023-02-08T00:23:16;-1.70;81.50
13268;DHT22;6702;47.068;15.458;2023-02-08T00:26:19;-1.70;81.30
13268;DHT22;6702;47.068;15.458;2023-02-08T00:29:23;-1.70;81.80
13268;DHT22;6702;47.068;15.458;2023-02-08T00:32:26;-1.70;81.90
13268;DHT22;6702;47.068;15.458;2023-02-08T00:35:31;-1.70;82.20
13268;DHT22;6702;47.068;15.458;2023-02-08T00:38:34;-1.80;82.20
13268;DHT22;6702;47.068;15.458;2023-02-08T00:41:38;-1.80;82.40
13268;DHT22;6702;47.068;15.458;2023-02-08T00:44:41;-1.80;82.40
13268;DHT22;6702;47.068;15.458;2023-02-08T00:47:44;-1.70;82.60
13268;DHT22;6702;47.068;15.458;2023-02-08T00:50:58;-1.80;82.60
13268;DHT22;6702;47.068;15.458;2023-02-08T00:54:01;-1.70;82.90
13268;DHT22;6702;47.068;15.458;2023-02-08T00:57:04;-1.80;82.20
13268;DHT22;6702;47.068;15.458;2023-02-08T01:00:09;-1.80;82.80
13268;DHT22;6702;47.068;15.458;2023-02-08T01:03:12;-1.90;82.90
13268;DHT22;6702;47.068;15.458;2023-02-08T01:06:17;-1.90;83.30
13268;DHT22;6702;47.068;15.458;2023-02-08T01:09:20;-1.90;83.70
13268;DHT22;6702;47.068;15.458;2023-02-08T01:12:23;-2.00;84.10
13268;DHT22;6702;47.068;15.458;2023-02-08T01:15:27;-2.00;84.10
13268;DHT22;6702;47.068;15.458;2023-02-08T01:18:30;-2.00;84.20
13268;DHT22;6702;47.068;15.458;2023-02-08T01:21:36;-2.00;84.90
13268;DHT22;6702;47.068;15.458;2023-02-08T01:24:40;-2.00;85.00
13268;DHT22;6702;47.068;15.458;2023-02-08T01:27:43;-2.10;85.50
13268;DHT22;6702;47.068;15.458;2023-02-08T01:30:46;-2.10;85.90
13268;DHT22;6702;47.068;15.458;2023-02-08T01:33:50;-2.10;85.90
13268;DHT22;6702;47.068;15.458;2023-02-08T01:36:55;-2.10;85.80
13268;DHT22;6702;47.068;15.458;2023-02-08T01:39:58;-2.10;85.70
13268;DHT22;6702;47.068;15.458;2023-02-08T01:43:01;-2.20;85.60
13268;DHT22;6702;47.068;15.458;2023-02-08T01:46:04;-2.20;85.90
13268;DHT22;6702;47.068;15.458;2023-02-08T01:49:11;-2.10;85.90
13268;DHT22;6702;47.068;15.458;2023-02-08T01:52:23;-2.20;86.00
13268;DHT22;6702;47.068;15.458;2023-02-08T01:55:29;-2.20;86.20
13268;DHT22;6702;47.068;15.458;2023-02-08T01:58:36;-2.20;86.40
13268;DHT22;6702;47.068;15.458;2023-02-08T02:01:41;-2.30;86.90
13268;DHT22;6702;47.068;15.458;2023-02-08T02:04:46;-2.30;87.00
13268;DHT22;6702;47.068;15.458;2023-02-08T02:07:52;-2.30;87.10
13268;DHT22;6702;47.068;15.458;2023-02-08T02:10:56;-2.20;87.20
13268;DHT22;6702;47.068;15.458;2023-02-08T02:14:00;-2.30;87.70
13268;DHT22;6702;47.068;15.458;2023-02-08T02:17:03;-2.30;87.80
13268;DHT22;6702;47.068;15.458;2023-02-08T02:20:10;-2.30;87.60
13268;DHT22;6702;47.068;15.458;2023-02-08T02:23:45;-2.30;87.80
13268;DHT22;6702;47.068;15.458;2023-02-08T02:27:20;-2.40;87.70
13268;DHT22;6702;47.068;15.458;2023-02-08T02:30:40;-2.30;87.80
13268;DHT22;6702;47.068;15.458;2023-02-08T02:33:55;-2.40;87.80
13268;DHT22;6702;47.068;15.458;2023-02-08T02:37:05;-2.40;88.10
13268;DHT22;6702;47.068;15.458;2023-02-08T02:40:17;-2.40;88.60
13268;DHT22;6702;47.068;15.458;2023-02-08T02:43:24;-2.50;88.70
13268;DHT22;6702;47.068;15.458;2023-02-08T02:46:48;-2.50;89.20
13268;DHT22;6702;47.068;15.458;2023-02-08T02:49:57;-2.50;89.50
13268;DHT22;6702;47.068;15.458;2023-02-08T02:53:04;-2.50;89.30
13268;DHT22;6702;47.068;15.458;2023-02-08T02:56:12;-2.60;89.20
13268;DHT22;6702;47.068;15.458;2023-02-08T02:59:18;-2.60;89.10
13268;DHT22;6702;47.068;15.458;2023-02-08T03:02:21;-2.70;89.30
13268;DHT22;6702;47.068;15.458;2023-02-08T03:05:27;-2.60;89.40
13268;DHT22;6702;47.068;15.458;2023-02-08T03:08:59;-2.70;89.50
13268;DHT22;6702;47.068;15.458;2023-02-08T03:12:18;-2.60;90.20
13268;DHT22;6702;47.068;15.458;2023-02-08T03:15:29;-2.70;89.90
13268;DHT22;6702;47.068;15.458;2023-02-08T03:18:46;-2.70;90.00
13268;DHT22;6702;47.068;15.458;2023-02-08T03:22:00;-2.70;90.10
13268;DHT22;6702;47.068;15.458;2023-02-08T03:25:07;-2.80;90.30
13268;DHT22;6702;47.068;15.458;2023-02-08T03:28:16;-2.80;90.50
13268;DHT22;6702;47.068;15.458;2023-02-08T03:31:25;-2.80;90.60
13268;DHT22;6702;47.068;15.458;2023-02-08T03:34:40;-2.80;90.70
13268;DHT22;6702;47.068;15.458;2023-02-08T03:37:50;-2.80;90.80
13268;DHT22;6702;47.068;15.458;2023-02-08T03:40:59;-2.80;90.80
13268;DHT22;6702;47.068;15.458;2023-02-08T03:44:08;-2.90;90.70
13268;DHT22;6702;47.068;15.458;2023-02-08T03:47:17;-2.90;90.80
13268;DHT22;6702;47.068;15.458;2023-02-08T03:50:22;-3.00;90.90
13268;DHT22;6702;47.068;15.458;2023-02-08T03:53:28;-3.10;91.00
13268;DHT22;6702;47.068;15.458;2023-02-08T03:56:37;-3.10;91.20
13268;DHT22;6702;47.068;15.458;2023-02-08T03:59:45;-3.10;91.60
13268;DHT22;6702;47.068;15.458;2023-02-08T04:02:54;-3.00;91.60
13268;DHT22;6702;47.068;15.458;2023-02-08T04:05:58;-3.10;91.60
13268;DHT22;6702;47.068;15.458;2023-02-08T04:09:03;-3.10;91.80
13268;DHT22;6702;47.068;15.458;2023-02-08T04:12:07;-3.10;91.80
13268;DHT22;6702;47.068;15.458;2023-02-08T04:15:10;-3.10;92.20
13268;DHT22;6702;47.068;15.458;2023-02-08T04:18:13;-3.20;91.80
13268;DHT22;6702;47.068;15.458;2023-02-08T04:21:16;-3.20;91.90
13268;DHT22;6702;47.068;15.458;2023-02-08T04:24:21;-3.20;92.00
13268;DHT22;6702;47.068;15.458;2023-02-08T04:27:24;-3.20;92.20
13268;DHT22;6702;47.068;15.458;2023-02-08T04:30:27;-3.10;92.30
13268;DHT22;6702;47.068;15.458;2023-02-08T04:33:30;-3.10;92.30
13268;DHT22;6702;47.068;15.458;2023-02-08T04:36:34;-3.10;92.40
13268;DHT22;6702;47.068;15.458;2023-02-08T04:39:38;-3.10;92.50
13268;DHT22;6702;47.068;15.458;2023-02-08T04:42:42;-3.10;92.50
13268;DHT22;6702;47.068;15.458;2023-02-08T04:45:45;-3.00;92.50
13268;DHT22;6702;47.068;15.458;2023-02-08T04:48:49;-3.00;92.40
13268;DHT22;6702;47.068;15.458;2023-02-08T04:51:52;-3.00;92.80
13268;DHT22;6702;47.068;15.458;2023-02-08T04:54:57;-2.90;92.60
13268;DHT22;6702;47.068;15.458;2023-02-08T04:58:00;-2.90;92.50
13268;DHT22;6702;47.068;15.458;2023-02-08T05:01:05;-2.80;92.50
13268;DHT22;6702;47.068;15.458;2023-02-08T05:04:08;-2.70;92.30
13268;DHT22;6702;47.068;15.458;2023-02-08T05:07:12;-2.80;92.50
13268;DHT22;6702;47.068;15.458;2023-02-08T05:10:17;-2.80;92.00
13268;DHT22;6702;47.068;15.458;2023-02-08T05:13:20;-2.70;91.90
13268;DHT22;6702;47.068;15.458;2023-02-08T05:16:23;-2.60;91.90
13268;DHT22;6702;47.068;15.458;2023-02-08T05:19:27;-2.60;91.70
13268;DHT22;6702;47.068;15.458;2023-02-08T05:22:30;-2.40;91.50
13268;DHT22;6702;47.068;15.458;2023-02-08T05:25:36;-2.30;91.20
13268;DHT22;6702;47.068;15.458;2023-02-08T05:28:40;-2.30;90.80
13268;DHT22;6702;47.068;15.458;2023-02-08T05:31:43;-2.30;90.70
13268;DHT22;6702;47.068;15.458;2023-02-08T05:34:46;-2.20;90.70
13268;DHT22;6702;47.068;15.458;2023-02-08T05:37:49;-2.10;90.60
13268;DHT22;6702;47.068;15.458;2023-02-08T05:40:54;-2.10;90.40
13268;DHT22;6702;47.068;15.458;2023-02-08T05:43:57;-2.10;90.20
13268;DHT22;6702;47.068;15.458;2023-02-08T05:47:00;-2.10;90.00
13268;DHT22;6702;47.068;15.458;2023-02-08T05:50:05;-2.10;89.90
13268;DHT22;6702;47.068;15.458;2023-02-08T05:53:08;-2.00;89.20
13268;DHT22;6702;47.068;15.458;2023-02-08T05:56:13;-2.00;89.70
13268;DHT22;6702;47.068;15.458;2023-02-08T05:59:16;-2.00;90.00
13268;DHT22;6702;47.068;15.458;2023-02-08T06:02:19;-2.10;90.10
13268;DHT22;6702;47.068;15.458;2023-02-08T06:05:22;-2.00;90.20
13268;DHT22;6702;47.068;15.458;2023-02-08T06:08:25;-2.00;90.20
13268;DHT22;6702;47.068;15.458;2023-02-08T06:11:30;-1.80;90.40
13268;DHT22;6702;47.068;15.458;2023-02-08T06:14:33;-1.80;90.40
13268;DHT22;6702;47.068;15.458;2023-02-08T06:17:37;-1.70;90.30
13268;DHT22;6702;47.068;15.458;2023-02-08T06:20:40;-1.70;90.40
13268;DHT22;6702;47.068;15.458;2023-02-08T06:23:43;-1.70;90.20
13268;DHT22;6702;47.068;15.458;2023-02-08T06:26:48;-1.70;90.60
13268;DHT22;6702;47.068;15.458;2023-02-08T06:29:51;-1.60;90.30
13268;DHT22;6702;47.068;15.458;2023-02-08T06:32:54;-1.50;90.30
13268;DHT22;6702;47.068;15.458;2023-02-08T06:35:57;-1.40;90.40
13268;DHT22;6702;47.068;15.458;2023-02-08T06:39:02;-1.40;90.20
13268;DHT22;6702;47.068;15.458;2023-02-08T06:42:07;-1.40;90.20
13268;DHT22;6702;47.068;15.458;2023-02-08T06:45:10;-1.30;90.30
13268;DHT22;6702;47.068;15.458;2023-02-08T06:48:14;-1.20;90.20
13268;DHT22;6702;47.068;15.458;2023-02-08T06:51:17;-1.10;90.10
13268;DHT22;6702;47.068;15.458;2023-02-08T06:54:21;-1.10;89.60
13268;DHT22;6702;47.068;15.458;2023-02-08T06:57:25;-1.10;88.50
13268;DHT22;6702;47.068;15.458;2023-02-08T07:00:29;-1.10;87.00
13268;DHT22;6702;47.068;15.458;2023-02-08T07:03:32;-1.10;85.50
13268;DHT22;6702;47.068;15.458;2023-02-08T07:06:35;-1.10;85.20
13268;DHT22;6702;47.068;15.458;2023-02-08T07:09:39;-1.20;84.90
13268;DHT22;6702;47.068;15.458;2023-02-08T07:12:44;-1.30;84.90
13268;DHT22;6702;47.068;15.458;2023-02-08T07:15:47;-1.40;84.70
13268;DHT22;6702;47.068;15.458;2023-02-08T07:18:50;-1.30;84.80
13268;DHT22;6702;47.068;15.458;2023-02-08T07:21:54;-1.40;84.70
13268;DHT22;6702;47.068;15.458;2023-02-08T07:24:57;-1.40;84.80
13268;DHT22;6702;47.068;15.458;2023-02-08T07:28:02;-1.40;84.90
13268;DHT22;6702;47.068;15.458;2023-02-08T07:31:06;-1.30;85.40
13268;DHT22;6702;47.068;15.458;2023-02-08T07:34:09;-1.30;86.10
13268;DHT22;6702;47.068;15.458;2023-02-08T07:37:13;-1.20;85.70
13268;DHT22;6702;47.068;15.458;2023-02-08T07:40:16;-1.00;85.80
13268;DHT22;6702;47.068;15.458;2023-02-08T07:43:21;-0.70;85.40
13268;DHT22;6702;47.068;15.458;2023-02-08T07:46:26;-0.40;84.60
13268;DHT22;6702;47.068;15.458;2023-02-08T07:49:29;-0.20;82.70
13268;DHT22;6702;47.068;15.458;2023-02-08T07:52:32;0.00;82.00
13268;DHT22;6702;47.068;15.458;2023-02-08T07:55:35;0.20;81.30
13268;DHT22;6702;47.068;15.458;2023-02-08T07:58:40;0.40;79.80
13268;DHT22;6702;47.068;15.458;2023-02-08T08:01:43;0.50;79.10
13268;DHT22;6702;47.068;15.458;2023-02-08T08:04:46;0.60;78.80
13268;DHT22;6702;47.068;15.458;2023-02-08T08:07:49;0.70;78.70
13268;DHT22;6702;47.068;15.458;2023-02-08T08:10:52;0.90;78.40
13268;DHT22;6702;47.068;15.458;2023-02-08T08:13:59;1.00;77.00
13268;DHT22;6702;47.068;15.458;2023-02-08T08:17:02;1.10;77.10
13268;DHT22;6702;47.068;15.458;2023-02-08T08:20:06;1.20;76.50
13268;DHT22;6702;47.068;15.458;2023-02-08T08:23:10;1.50;75.90
13268;DHT22;6702;47.068;15.458;2023-02-08T08:26:15;1.50;74.90
13268;DHT22;6702;47.068;15.458;2023-02-08T08:29:20;1.70;74.30
13268;DHT22;6702;47.068;15.458;2023-02-08T08:32:23;1.70;73.70
13268;DHT22;6702;47.068;15.458;2023-02-08T08:35:26;1.70;73.40
13268;DHT22;6702;47.068;15.458;2023-02-08T08:38:30;1.60;73.10
13268;DHT22;6702;47.068;15.458;2023-02-08T08:41:33;1.50;72.60
13268;DHT22;6702;47.068;15.458;2023-02-08T08:44:39;1.30;72.80
13268;DHT22;6702;47.068;15.458;2023-02-08T08:47:42;1.20;73.80
13268;DHT22;6702;47.068;15.458;2023-02-08T08:50:45;1.20;74.40
13268;DHT22;6702;47.068;15.458;2023-02-08T08:53:50;1.20;74.60
13268;DHT22;6702;47.068;15.458;2023-02-08T08:56:53;1.40;74.50
13268;DHT22;6702;47.068;15.458;2023-02-08T08:59:57;1.40;74.00
13268;DHT22;6702;47.068;15.458;2023-02-08T09:03:01;1.50;74.10
13268;DHT22;6702;47.068;15.458;2023-02-08T09:06:04;1.60;73.40
13268;DHT22;6702;47.068;15.458;2023-02-08T09:09:08;1.60;72.50
13268;DHT22;6702;47.068;15.458;2023-02-08T09:12:11;1.80;72.80
13268;DHT22;6702;47.068;15.458;2023-02-08T09:15:16;2.20;71.50
13268;DHT22;6702;47.068;15.458;2023-02-08T09:18:19;2.50;70.10
13268;DHT22;6702;47.068;15.458;2023-02-08T09:21:23;2.90;68.50
13268;DHT22;6702;47.068;15.458;2023-02-08T09:24:27;3.20;67.10
13268;DHT22;6702;47.068;15.458;2023-02-08T09:27:30;3.60;65.60
13268;DHT22;6702;47.068;15.458;2023-02-08T09:30:34;4.20;63.70
13268;DHT22;6702;47.068;15.458;2023-02-08T09:33:38;4.60;61.40
13268;DHT22;6702;47.068;15.458;2023-02-08T09:36:41;4.80;58.90
13268;DHT22;6702;47.068;15.458;2023-02-08T09:39:44;5.00;59.10
13268;DHT22;6702;47.068;15.458;2023-02-08T09:42:54;5.20;58.00
13268;DHT22;6702;47.068;15.458;2023-02-08T09:46:06;5.40;56.60
13268;DHT22;6702;47.068;15.458;2023-02-08T09:49:15;5.40;56.10
13268;DHT22;6702;47.068;15.458;2023-02-08T09:52:23;5.50;55.30
13268;DHT22;6702;47.068;15.458;2023-02-08T09:55:33;5.80;54.60
13268;DHT22;6702;47.068;15.458;2023-02-08T09:58:39;6.00;54.00
13268;DHT22;6702;47.068;15.458;2023-02-08T10:01:45;6.30;52.90
13268;DHT22;6702;47.068;15.458;2023-02-08T10:04:55;6.40;52.60
13268;DHT22;6702;47.068;15.458;2023-02-08T10:07:59;6.50;52.20
13268;DHT22;6702;47.068;15.458;2023-02-08T10:11:17;6.80;51.40
13268;DHT22;6702;47.068;15.458;2023-02-08T10:18:18;6.70;50.10
13268;DHT22;6702;47.068;15.458;2023-02-08T10:21:37;6.60;50.40
13268;DHT22;6702;47.068;15.458;2023-02-08T10:25:02;6.40;50.00
13268;DHT22;6702;47.068;15.458;2023-02-08T10:28:25;5.90;50.40
13268;DHT22;6702;47.068;15.458;2023-02-08T10:31:39;5.30;51.20
13268;DHT22;6702;47.068;15.458;2023-02-08T10:34:51;4.70;52.10
13268;DHT22;6702;47.068;15.458;2023-02-08T10:37:55;4.30;53.00
13268;DHT22;6702;47.068;15.458;2023-02-08T10:41:01;4.20;54.30
13268;DHT22;6702;47.068;15.458;2023-02-08T10:44:10;4.10;53.90
13268;DHT22;6702;47.068;15.458;2023-02-08T10:47:32;3.90;53.90
13268;DHT22;6702;47.068;15.458;2023-02-08T10:50:39;3.90;54.80
13268;DHT22;6702;47.068;15.458;2023-02-08T10:53:43;4.00;54.50
13268;DHT22;6702;47.068;15.458;2023-02-08T10:56:51;4.10;54.80
13268;DHT22;6702;47.068;15.458;2023-02-08T11:00:01;4.10;54.50
13268;DHT22;6702;47.068;15.458;2023-02-08T11:03:14;4.20;54.40
13268;DHT22;6702;47.068;15.458;2023-02-08T11:06:26;4.20;54.70
13268;DHT22;6702;47.068;15.458;2023-02-08T11:09:30;4.30;54.70
13268;DHT22;6702;47.068;15.458;2023-02-08T11:12:33;4.20;54.00
13268;DHT22;6702;47.068;15.458;2023-02-08T11:15:39;4.00;54.10
13268;DHT22;6702;47.068;15.458;2023-02-08T11:18:47;3.90;54.70
13268;DHT22;6702;47.068;15.458;2023-02-08T11:21:53;3.70;54.80
13268;DHT22;6702;47.068;15.458;2023-02-08T11:24:59;3.80;55.20
13268;DHT22;6702;47.068;15.458;2023-02-08T11:28:04;3.80;55.20
13268;DHT22;6702;47.068;15.458;2023-02-08T11:31:16;3.80;55.10
13268;DHT22;6702;47.068;15.458;2023-02-08T11:34:23;3.90;55.50
13268;DHT22;6702;47.068;15.458;2023-02-08T11:37:28;4.10;55.60
13268;DHT22;6702;47.068;15.458;2023-02-08T11:40:34;4.20;55.10
13268;DHT22;6702;47.068;15.458;2023-02-08T11:43:38;4.30;54.80
13268;DHT22;6702;47.068;15.458;2023-02-08T11:46:45;4.40;54.70
13268;DHT22;6702;47.068;15.458;2023-02-08T11:49:51;4.50;54.30
13268;DHT22;6702;47.068;15.458;2023-02-08T11:52:59;4.40;54.30
13268;DHT22;6702;47.068;15.458;2023-02-08T11:56:16;4.50;54.30
13268;DHT22;6702;47.068;15.458;2023-02-08T11:59:21;4.70;54.00
13268;DHT22;6702;47.068;15.458;2023-02-08T12:02:34;4.80;53.80
13268;DHT22;6702;47.068;15.458;2023-02-08T12:05:43;4.90;53.70
13268;DHT22;6702;47.068;15.458;2023-02-08T12:08:57;4.90;53.50
13268;DHT22;6702;47.068;15.458;2023-02-08T12:12:09;5.00;53.70
13268;DHT22;6702;47.068;15.458;2023-02-08T12:15:21;4.90;53.40
13268;DHT22;6702;47.068;15.458;2023-02-08T12:18:43;5.00;53.10
13268;DHT22;6702;47.068;15.458;2023-02-08T12:21:55;5.00;52.50
13268;DHT22;6702;47.068;15.458;2023-02-08T12:25:17;4.90;52.70
13268;DHT22;6702;47.068;15.458;2023-02-08T12:28:27;4.80;52.90
13268;DHT22;6702;47.068;15.458;2023-02-08T12:31:47;4.70;53.30
13268;DHT22;6702;47.068;15.458;2023-02-08T12:35:11;4.80;53.40
13268;DHT22;6702;47.068;15.458;2023-02-08T12:38:48;4.90;53.50
13268;DHT22;6702;47.068;15.458;2023-02-08T12:42:30;5.00;52.70
13268;DHT22;6702;47.068;15.458;2023-02-08T12:45:46;4.80;52.90
13268;DHT22;6702;47.068;15.458;2023-02-08T12:49:02;4.80;53.00
13268;DHT22;6702;47.068;15.458;2023-02-08T12:52:18;4.80;53.20
13268;DHT22;6702;47.068;15.458;2023-02-08T12:55:25;5.10;53.30
13268;DHT22;6702;47.068;15.458;2023-02-08T12:58:36;5.30;52.50
13268;DHT22;6702;47.068;15.458;2023-02-08T13:01:43;5.50;51.90
13268;DHT22;6702;47.068;15.458;2023-02-08T13:04:50;5.70;50.90
13268;DHT22;6702;47.068;15.458;2023-02-08T13:07:58;5.70;50.60
13268;DHT22;6702;47.068;15.458;2023-02-08T13:11:08;5.70;50.60
13268;DHT22;6702;47.068;15.458;2023-02-08T13:14:30;5.70;50.50
13268;DHT22;6702;47.068;15.458;2023-02-08T13:17:42;5.80;50.40
13268;DHT22;6702;47.068;15.458;2023-02-08T13:20:49;6.10;50.30
13268;DHT22;6702;47.068;15.458;2023-02-08T13:23:53;6.40;49.60
13268;DHT22;6702;47.068;15.458;2023-02-08T13:26:57;6.80;48.60
13268;DHT22;6702;47.068;15.458;2023-02-08T13:30:02;7.10;48.10
13268;DHT22;6702;47.068;15.458;2023-02-08T13:33:14;8.30;47.60
13268;DHT22;6702;47.068;15.458;2023-02-08T13:36:21;10.10;44.40
13268;DHT22;6702;47.068;15.458;2023-02-08T13:39:32;12.80;39.70
13268;DHT22;6702;47.068;15.458;2023-02-08T13:42:39;15.50;35.00
13268;DHT22;6702;47.068;15.458;2023-02-08T13:45:50;17.30;29.10
13268;DHT22;6702;47.068;15.458;2023-02-08T13:48:55;18.50;26.90
13268;DHT22;6702;47.068;15.458;2023-02-08T13:51:58;20.40;24.40
13268;DHT22;6702;47.068;15.458;2023-02-08T13:59:00;22.60;21.10
13268;DHT22;6702;47.068;15.458;2023-02-08T14:02:27;22.70;20.20
13268;DHT22;6702;47.068;15.458;2023-02-08T14:05:42;21.30;19.60
13268;DHT22;6702;47.068;15.458;2023-02-08T14:08:53;18.80;21.20
13268;DHT22;6702;47.068;15.458;2023-02-08T14:12:01;17.40;21.80
13268;DHT22;6702;47.068;15.458;2023-02-08T14:15:26;17.30;22.50
13268;DHT22;6702;47.068;15.458;2023-02-08T14:18:31;17.20;23.00
13268;DHT22;6702;47.068;15.458;2023-02-08T14:21:37;16.80;23.20
13268;DHT22;6702;47.068;15.458;2023-02-08T14:24:43;15.60;23.40
13268;DHT22;6702;47.068;15.458;2023-02-08T14:27:51;13.80;25.20
13268;DHT22;6702;47.068;15.458;2023-02-08T14:30:57;12.60;26.10
13268;DHT22;6702;47.068;15.458;2023-02-08T14:34:03;11.20;27.80
13268;DHT22;6702;47.068;15.458;2023-02-08T14:37:25;9.90;30.00
13268;DHT22;6702;47.068;15.458;2023-02-08T14:40:48;9.20;31.30
13268;DHT22;6702;47.068;15.458;2023-02-08T14:43:51;8.60;32.90
13268;DHT22;6702;47.068;15.458;2023-02-08T14:46:55;7.80;33.90
13268;DHT22;6702;47.068;15.458;2023-02-08T14:50:09;7.40;35.20
13268;DHT22;6702;47.068;15.458;2023-02-08T14:53:23;7.00;36.00
13268;DHT22;6702;47.068;15.458;2023-02-08T14:56:30;6.50;36.80
13268;DHT22;6702;47.068;15.458;2023-02-08T14:59:34;6.20;37.40
13268;DHT22;6702;47.068;15.458;2023-02-08T15:02:40;6.00;38.00
13268;DHT22;6702;47.068;15.458;2023-02-08T15:09:20;5.60;38.90
13268;DHT22;6702;47.068;15.458;2023-02-08T15:12:27;5.40;39.50
13268;DHT22;6702;47.068;15.458;2023-02-08T15:15:34;5.10;40.10
13268;DHT22;6702;47.068;15.458;2023-02-08T15:18:37;4.90;40.90
13268;DHT22;6702;47.068;15.458;2023-02-08T15:21:42;4.70;40.70
13268;DHT22;6702;47.068;15.458;2023-02-08T15:24:50;4.60;41.30
13268;DHT22;6702;47.068;15.458;2023-02-08T15:27:55;4.50;41.80
13268;DHT22;6702;47.068;15.458;2023-02-08T15:31:01;4.20;42.30
13268;DHT22;6702;47.068;15.458;2023-02-08T15:34:09;4.20;42.90
13268;DHT22;6702;47.068;15.458;2023-02-08T15:37:15;3.90;43.60
13268;DHT22;6702;47.068;15.458;2023-02-08T15:40:25;3.70;44.30
13268;DHT22;6702;47.068;15.458;2023-02-08T15:43:29;3.50;44.90
13268;DHT22;6702;47.068;15.458;2023-02-08T15:46:33;3.50;45.30
13268;DHT22;6702;47.068;15.458;2023-02-08T15:49:40;3.40;45.50
13268;DHT22;6702;47.068;15.458;2023-02-08T15:52:47;3.40;46.20
13268;DHT22;6702;47.068;15.458;2023-02-08T15:55:53;3.20;46.40
13268;DHT22;6702;47.068;15.458;2023-02-08T15:58:59;3.20;46.80
13268;DHT22;6702;47.068;15.458;2023-02-08T16:02:20;3.20;47.00
13268;DHT22;6702;47.068;15.458;2023-02-08T16:05:27;3.10;47.40
13268;DHT22;6702;47.068;15.458;2023-02-08T16:08:35;3.10;48.00
13268;DHT22;6702;47.068;15.458;2023-02-08T16:11:45;3.00;48.20
13268;DHT22;6702;47.068;15.458;2023-02-08T16:14:50;3.00;48.40
13268;DHT22;6702;47.068;15.458;2023-02-08T16:17:57;3.00;48.60
13268;DHT22;6702;47.068;15.458;2023-02-08T16:21:02;2.90;49.00
13268;DHT22;6702;47.068;15.458;2023-02-08T16:24:20;2.80;49.80
13268;DHT22;6702;47.068;15.458;2023-02-08T16:27:24;2.70;49.80
13268;DHT22;6702;47.068;15.458;2023-02-08T16:30:28;2.70;50.10
13268;DHT22;6702;47.068;15.458;2023-02-08T16:33:33;2.70;50.60
13268;DHT22;6702;47.068;15.458;2023-02-08T16:36:40;2.60;50.90
13268;DHT22;6702;47.068;15.458;2023-02-08T16:39:52;2.70;51.40
13268;DHT22;6702;47.068;15.458;2023-02-08T16:43:14;2.60;51.30
13268;DHT22;6702;47.068;15.458;2023-02-08T16:46:20;2.50;51.70
13268;DHT22;6702;47.068;15.458;2023-02-08T16:49:26;2.50;51.90
13268;DHT22;6702;47.068;15.458;2023-02-08T16:52:29;2.50;52.20
13268;DHT22;6702;47.068;15.458;2023-02-08T16:55:36;2.40;52.40
13268;DHT22;6702;47.068;15.458;2023-02-08T16:58:40;2.30;53.00
13268;DHT22;6702;47.068;15.458;2023-02-08T17:01:45;2.30;53.20
13268;DHT22;6702;47.068;15.458;2023-02-08T17:04:50;2.30;53.50
13268;DHT22;6702;47.068;15.458;2023-02-08T17:07:56;2.30;53.70
13268;DHT22;6702;47.068;15.458;2023-02-08T17:11:01;2.20;54.30
13268;DHT22;6702;47.068;15.458;2023-02-08T17:14:07;2.10;54.90
13268;DHT22;6702;47.068;15.458;2023-02-08T17:17:12;2.10;55.40
13268;DHT22;6702;47.068;15.458;2023-02-08T17:20:19;2.00;55.80
13268;DHT22;6702;47.068;15.458;2023-02-08T17:23:25;2.10;56.10
13268;DHT22;6702;47.068;15.458;2023-02-08T17:26:34;2.10;56.30
13268;DHT22;6702;47.068;15.458;2023-02-08T17:29:42;1.90;56.80
13268;DHT22;6702;47.068;15.458;2023-02-08T17:32:48;1.90;57.00
13268;DHT22;6702;47.068;15.458;2023-02-08T17:35:53;1.90;57.60
13268;DHT22;6702;47.068;15.458;2023-02-08T17:38:58;2.00;57.70
13268;DHT22;6702;47.068;15.458;2023-02-08T17:42:12;1.90;57.60
13268;DHT22;6702;47.068;15.458;2023-02-08T17:45:17;1.90;57.60
13268;DHT22;6702;47.068;15.458;2023-02-08T17:48:22;2.00;58.00
13268;DHT22;6702;47.068;15.458;2023-02-08T17:51:26;2.10;57.90
13268;DHT22;6702;47.068;15.458;2023-02-08T17:54:30;2.20;58.10
13268;DHT22;6702;47.068;15.458;2023-02-08T17:57:37;2.20;57.80
13268;DHT22;6702;47.068;15.458;2023-02-08T18:00:42;2.30;57.80
13268;DHT22;6702;47.068;15.458;2023-02-08T18:03:47;2.30;57.50
13268;DHT22;6702;47.068;15.458;2023-02-08T18:06:52;2.40;57.60
13268;DHT22;6702;47.068;15.458;2023-02-08T18:09:56;2.40;57.50
13268;DHT22;6702;47.068;15.458;2023-02-08T18:13:02;2.50;57.60
13268;DHT22;6702;47.068;15.458;2023-02-08T18:16:08;2.50;57.60
13268;DHT22;6702;47.068;15.458;2023-02-08T18:19:12;2.50;57.50
13268;DHT22;6702;47.068;15.458;2023-02-08T18:22:17;2.50;57.50
13268;DHT22;6702;47.068;15.458;2023-02-08T18:25:23;2.60;58.30
13268;DHT22;6702;47.068;15.458;2023-02-08T18:28:30;2.60;57.50
13268;DHT22;6702;47.068;15.458;2023-02-08T18:31:35;2.60;57.40
13268;DHT22;6702;47.068;15.458;2023-02-08T18:34:41;2.70;57.70
13268;DHT22;6702;47.068;15.458;2023-02-08T18:37:46;2.50;57.80
13268;DHT22;6702;47.068;15.458;2023-02-08T18:40:52;2.50;58.00
13268;DHT22;6702;47.068;15.458;2023-02-08T18:43:58;2.40;58.10
13268;DHT22;6702;47.068;15.458;2023-02-08T18:47:05;2.50;58.40
13268;DHT22;6702;47.068;15.458;2023-02-08T18:50:10;2.50;58.40
13268;DHT22;6702;47.068;15.458;2023-02-08T18:53:14;2.50;58.40
13268;DHT22;6702;47.068;15.458;2023-02-08T18:56:19;2.50;58.50
13268;DHT22;6702;47.068;15.458;2023-02-08T18:59:27;2.40;58.60
13268;DHT22;6702;47.068;15.458;2023-02-08T19:02:33;2.50;58.70
13268;DHT22;6702;47.068;15.458;2023-02-08T19:05:40;2.50;58.70
13268;DHT22;6702;47.068;15.458;2023-02-08T19:08:46;2.50;59.00
13268;DHT22;6702;47.068;15.458;2023-02-08T19:11:53;2.50;59.00
13268;DHT22;6702;47.068;15.458;2023-02-08T19:14:59;2.50;59.10
13268;DHT22;6702;47.068;15.458;2023-02-08T19:18:06;2.50;59.00
13268;DHT22;6702;47.068;15.458;2023-02-08T19:21:13;2.40;59.00
13268;DHT22;6702;47.068;15.458;2023-02-08T19:24:18;2.40;59.30
13268;DHT22;6702;47.068;15.458;2023-02-08T19:27:25;2.40;59.50
13268;DHT22;6702;47.068;15.458;2023-02-08T19:30:32;2.40;59.60
13268;DHT22;6702;47.068;15.458;2023-02-08T19:33:39;2.40;59.50
13268;DHT22;6702;47.068;15.458;2023-02-08T19:36:46;2.40;59.50
13268;DHT22;6702;47.068;15.458;2023-02-08T19:39:53;2.40;59.60
13268;DHT22;6702;47.068;15.458;2023-02-08T19:42:58;2.40;59.60
13268;DHT22;6702;47.068;15.458;2023-02-08T19:46:12;2.40;59.60
13268;DHT22;6702;47.068;15.458;2023-02-08T19:49:17;2.40;59.40
13268;DHT22;6702;47.068;15.458;2023-02-08T19:52:28;2.40;59.60
13268;DHT22;6702;47.068;15.458;2023-02-08T19:55:33;2.40;59.70
13268;DHT22;6702;47.068;15.458;2023-02-08T19:58:39;2.40;59.70
13268;DHT22;6702;47.068;15.458;2023-02-08T20:01:46;2.40;59.90
13268;DHT22;6702;47.068;15.458;2023-02-08T20:04:51;2.40;60.10